sensor_id;sensor_type;location;lat;lon;timestamp;P1;durP1;ratioP1;P2;durP2;ratioP2
46589;SDS011;32313;48.722;9.362;2022-09-27T00:01:59;3.70;;;3.50;;
46589;SDS011;32313;48.722;9.362;2022-09-27T00:04:25;3.30;;;3.10;;
46589;SDS011;32313;48.722;9.362;2022-09-27T00:06:51;3.30;;;3.10;;
46589;SDS011;32313;48.722;9.362;2022-09-27T00:09:17;3.53;;;3.23;;
46589;SDS011;32313;48.722;9.362;2022-09-27T00:11:43;3.60;;;3.30;;
46589;SDS011;32313;48.722;9.362;2022-09-27T00:14:12;3.90;;;3.70;;
46589;SDS011;32313;48.722;9.362;2022-09-27T00:16:41;3.90;;;3.40;;
46589;SDS011;32313;48.722;9.362;2022-09-27T00:19:12;3.30;;;3.10;;
46589;SDS011;32313;48.722;9.362;2022-09-27T00:21:40;3.73;;;3.50;;
46589;SDS011;32313;48.722;9.362;2022-09-27T00:24:14;3.53;;;3.33;;
46589;SDS011;32313;48.722;9.362;2022-09-27T00:26:41;3.53;;;3.30;;
46589;SDS011;32313;48.722;9.362;2022-09-27T00:29:07;3.33;;;3.07;;
46589;SDS011;32313;48.722;9.362;2022-09-27T00:31:35;3.33;;;3.13;;
46589;SDS011;32313;48.722;9.362;2022-09-27T00:34:02;3.10;;;2.90;;
46589;SDS011;32313;48.722;9.362;2022-09-27T00:36:30;3.70;;;3.50;;
46589;SDS011;32313;48.722;9.362;2022-09-27T00:38:57;3.77;;;3.57;;
46589;SDS011;32313;48.722;9.362;2022-09-27T00:41:25;3.40;;;3.20;;
46589;SDS011;32313;48.722;9.362;2022-09-27T00:49:06;4.20;;;3.90;;
46589;SDS011;32313;48.722;9.362;2022-09-27T00:52:00;3.43;;;3.23;;
46589;SDS011;32313;48.722;9.362;2022-09-27T00:54:31;3.57;;;3.33;;
46589;SDS011;32313;48.722;9.362;2022-09-27T00:57:01;3.77;;;3.50;;
46589;SDS011;32313;48.722;9.362;2022-09-27T00:59:29;3.23;;;3.03;;
46589;SDS011;32313;48.722;9.362;2022-09-27T01:02:01;3.30;;;3.00;;
46589;SDS011;32313;48.722;9.362;2022-09-27T01:04:28;3.27;;;2.70;;
46589;SDS011;32313;48.722;9.362;2022-09-27T01:06:56;3.00;;;2.80;;
46589;SDS011;32313;48.722;9.362;2022-09-27T01:09:21;3.17;;;2.93;;
46589;SDS011;32313;48.722;9.362;2022-09-27T01:14:38;3.30;;;3.10;;
46589;SDS011;32313;48.722;9.362;2022-09-27T01:29:08;3.00;;;2.80;;
46589;SDS011;32313;48.722;9.362;2022-09-27T01:32:03;3.27;;;3.07;;
46589;SDS011;32313;48.722;9.362;2022-09-27T01:35:05;3.30;;;3.00;;
46589;SDS011;32313;48.722;9.362;2022-09-27T01:37:55;3.10;;;2.90;;
46589;SDS011;32313;48.722;9.362;2022-09-27T01:46:42;3.10;;;2.90;;
46589;SDS011;32313;48.722;9.362;2022-09-27T01:52:27;2.87;;;2.77;;
46589;SDS011;32313;48.722;9.362;2022-09-27T01:54:58;2.73;;;2.63;;
46589;SDS011;32313;48.722;9.362;2022-09-27T01:57:46;2.80;;;2.60;;
46589;SDS011;32313;48.722;9.362;2022-09-27T02:00:22;2.80;;;2.70;;
46589;SDS011;32313;48.722;9.362;2022-09-27T02:03:22;2.87;;;2.60;;
46589;SDS011;32313;48.722;9.362;2022-09-27T02:06:08;3.30;;;3.10;;
46589;SDS011;32313;48.722;9.362;2022-09-27T02:08:58;2.93;;;2.70;;
46589;SDS011;32313;48.722;9.362;2022-09-27T02:11:53;2.87;;;2.67;;
46589;SDS011;32313;48.722;9.362;2022-09-27T02:14:27;2.80;;;2.70;;
46589;SDS011;32313;48.722;9.362;2022-09-27T02:19:53;2.57;;;2.47;;
46589;SDS011;32313;48.722;9.362;2022-09-27T02:22:50;2.90;;;2.80;;
46589;SDS011;32313;48.722;9.362;2022-09-27T02:25:34;2.60;;;2.50;;
46589;SDS011;32313;48.722;9.362;2022-09-27T02:30:48;3.53;;;3.23;;
46589;SDS011;32313;48.722;9.362;2022-09-27T02:33:22;2.90;;;2.80;;
46589;SDS011;32313;48.722;9.362;2022-09-27T02:35:52;3.90;;;2.60;;
46589;SDS011;32313;48.722;9.362;2022-09-27T02:38:18;3.20;;;3.00;;
46589;SDS011;32313;48.722;9.362;2022-09-27T02:40:45;3.07;;;2.87;;
46589;SDS011;32313;48.722;9.362;2022-09-27T02:43:12;3.07;;;2.90;;
46589;SDS011;32313;48.722;9.362;2022-09-27T02:56:53;3.37;;;3.17;;
46589;SDS011;32313;48.722;9.362;2022-09-27T02:59:52;3.47;;;3.23;;
46589;SDS011;32313;48.722;9.362;2022-09-27T03:05:34;2.80;;;2.70;;
46589;SDS011;32313;48.722;9.362;2022-09-27T03:08:08;3.27;;;3.07;;
46589;SDS011;32313;48.722;9.362;2022-09-27T03:10:35;2.90;;;2.80;;
46589;SDS011;32313;48.722;9.362;2022-09-27T03:13:01;2.70;;;2.60;;
46589;SDS011;32313;48.722;9.362;2022-09-27T03:15:28;3.00;;;2.80;;
46589;SDS011;32313;48.722;9.362;2022-09-27T03:18:00;2.87;;;2.67;;
46589;SDS011;32313;48.722;9.362;2022-09-27T03:20:45;2.80;;;2.63;;
46589;SDS011;32313;48.722;9.362;2022-09-27T03:23:14;2.90;;;2.80;;
46589;SDS011;32313;48.722;9.362;2022-09-27T03:25:40;3.40;;;3.20;;
46589;SDS011;32313;48.722;9.362;2022-09-27T03:28:08;2.40;;;2.30;;
46589;SDS011;32313;48.722;9.362;2022-09-27T03:30:40;2.97;;;2.80;;
46589;SDS011;32313;48.722;9.362;2022-09-27T03:33:07;3.20;;;3.10;;
46589;SDS011;32313;48.722;9.362;2022-09-27T03:35:48;3.10;;;2.90;;
46589;SDS011;32313;48.722;9.362;2022-09-27T03:38:14;3.13;;;2.90;;
46589;SDS011;32313;48.722;9.362;2022-09-27T03:40:40;2.80;;;2.70;;
46589;SDS011;32313;48.722;9.362;2022-09-27T03:43:07;3.20;;;3.00;;
46589;SDS011;32313;48.722;9.362;2022-09-27T03:45:32;3.03;;;2.83;;
46589;SDS011;32313;48.722;9.362;2022-09-27T03:48:02;2.80;;;2.60;;
46589;SDS011;32313;48.722;9.362;2022-09-27T03:50:28;3.00;;;2.83;;
46589;SDS011;32313;48.722;9.362;2022-09-27T03:52:54;3.00;;;2.80;;
46589;SDS011;32313;48.722;9.362;2022-09-27T03:55:21;3.20;;;2.83;;
46589;SDS011;32313;48.722;9.362;2022-09-27T03:57:47;2.93;;;2.73;;
46589;SDS011;32313;48.722;9.362;2022-09-27T04:00:14;3.30;;;3.10;;
46589;SDS011;32313;48.722;9.362;2022-09-27T04:02:41;3.03;;;2.93;;
46589;SDS011;32313;48.722;9.362;2022-09-27T04:05:29;3.13;;;2.93;;
46589;SDS011;32313;48.722;9.362;2022-09-27T04:07:59;3.13;;;2.83;;
46589;SDS011;32313;48.722;9.362;2022-09-27T04:10:33;4.13;;;3.83;;
46589;SDS011;32313;48.722;9.362;2022-09-27T04:13:01;4.23;;;3.80;;
46589;SDS011;32313;48.722;9.362;2022-09-27T04:15:32;3.53;;;3.23;;
46589;SDS011;32313;48.722;9.362;2022-09-27T04:18:18;3.87;;;3.57;;
46589;SDS011;32313;48.722;9.362;2022-09-27T04:21:13;6.30;;;3.53;;
46589;SDS011;32313;48.722;9.362;2022-09-27T04:23:45;5.37;;;3.87;;
46589;SDS011;32313;48.722;9.362;2022-09-27T04:26:14;3.90;;;3.40;;
46589;SDS011;32313;48.722;9.362;2022-09-27T04:28:47;4.60;;;3.90;;
46589;SDS011;32313;48.722;9.362;2022-09-27T04:31:15;6.20;;;3.47;;
46589;SDS011;32313;48.722;9.362;2022-09-27T04:33:59;5.70;;;3.80;;
46589;SDS011;32313;48.722;9.362;2022-09-27T04:36:29;4.10;;;3.70;;
46589;SDS011;32313;48.722;9.362;2022-09-27T04:39:02;5.27;;;3.57;;
46589;SDS011;32313;48.722;9.362;2022-09-27T04:41:31;4.07;;;3.67;;
46589;SDS011;32313;48.722;9.362;2022-09-27T04:43:57;6.80;;;4.50;;
46589;SDS011;32313;48.722;9.362;2022-09-27T04:46:29;5.27;;;4.00;;
46589;SDS011;32313;48.722;9.362;2022-09-27T04:48:59;7.23;;;4.40;;
46589;SDS011;32313;48.722;9.362;2022-09-27T04:51:26;4.67;;;3.87;;
46589;SDS011;32313;48.722;9.362;2022-09-27T04:53:54;7.00;;;3.93;;
46589;SDS011;32313;48.722;9.362;2022-09-27T04:56:22;4.90;;;4.13;;
46589;SDS011;32313;48.722;9.362;2022-09-27T04:58:47;6.07;;;4.30;;
46589;SDS011;32313;48.722;9.362;2022-09-27T05:01:13;4.23;;;3.70;;
46589;SDS011;32313;48.722;9.362;2022-09-27T05:04:07;4.07;;;3.80;;
46589;SDS011;32313;48.722;9.362;2022-09-27T05:06:36;5.70;;;3.80;;
46589;SDS011;32313;48.722;9.362;2022-09-27T05:09:15;5.03;;;4.20;;
46589;SDS011;32313;48.722;9.362;2022-09-27T05:11:47;7.80;;;4.77;;
46589;SDS011;32313;48.722;9.362;2022-09-27T05:14:21;4.73;;;4.20;;
46589;SDS011;32313;48.722;9.362;2022-09-27T05:17:04;4.33;;;4.00;;
46589;SDS011;32313;48.722;9.362;2022-09-27T05:19:43;4.27;;;3.87;;
46589;SDS011;32313;48.722;9.362;2022-09-27T05:22:16;4.27;;;3.87;;
46589;SDS011;32313;48.722;9.362;2022-09-27T05:24:42;4.57;;;4.03;;
46589;SDS011;32313;48.722;9.362;2022-09-27T05:27:14;4.57;;;3.83;;
46589;SDS011;32313;48.722;9.362;2022-09-27T05:29:43;6.70;;;4.43;;
46589;SDS011;32313;48.722;9.362;2022-09-27T05:32:23;5.13;;;4.50;;
46589;SDS011;32313;48.722;9.362;2022-09-27T05:35:12;4.17;;;3.77;;
46589;SDS011;32313;48.722;9.362;2022-09-27T05:37:39;5.90;;;4.40;;
46589;SDS011;32313;48.722;9.362;2022-09-27T05:40:05;6.40;;;4.10;;
46589;SDS011;32313;48.722;9.362;2022-09-27T05:42:31;5.93;;;4.00;;
46589;SDS011;32313;48.722;9.362;2022-09-27T05:44:59;6.00;;;3.90;;
46589;SDS011;32313;48.722;9.362;2022-09-27T05:47:25;5.30;;;4.13;;
46589;SDS011;32313;48.722;9.362;2022-09-27T05:49:50;4.33;;;3.30;;
46589;SDS011;32313;48.722;9.362;2022-09-27T05:52:16;5.13;;;4.27;;
46589;SDS011;32313;48.722;9.362;2022-09-27T05:54:43;4.47;;;3.63;;
46589;SDS011;32313;48.722;9.362;2022-09-27T05:57:10;3.90;;;3.60;;
46589;SDS011;32313;48.722;9.362;2022-09-27T05:59:44;5.63;;;3.67;;
46589;SDS011;32313;48.722;9.362;2022-09-27T06:02:20;4.23;;;3.33;;
46589;SDS011;32313;48.722;9.362;2022-09-27T06:05:05;4.10;;;3.80;;
46589;SDS011;32313;48.722;9.362;2022-09-27T06:07:50;3.60;;;3.40;;
46589;SDS011;32313;48.722;9.362;2022-09-27T06:10:29;3.70;;;3.40;;
46589;SDS011;32313;48.722;9.362;2022-09-27T06:12:59;4.50;;;3.83;;
46589;SDS011;32313;48.722;9.362;2022-09-27T06:15:35;4.60;;;3.87;;
46589;SDS011;32313;48.722;9.362;2022-09-27T06:18:04;4.57;;;3.70;;
46589;SDS011;32313;48.722;9.362;2022-09-27T06:20:35;4.53;;;3.60;;
46589;SDS011;32313;48.722;9.362;2022-09-27T06:23:06;3.90;;;3.60;;
46589;SDS011;32313;48.722;9.362;2022-09-27T06:25:40;3.77;;;3.40;;
46589;SDS011;32313;48.722;9.362;2022-09-27T06:28:16;4.17;;;3.87;;
46589;SDS011;32313;48.722;9.362;2022-09-27T06:30:46;4.63;;;3.60;;
46589;SDS011;32313;48.722;9.362;2022-09-27T06:33:45;4.03;;;3.73;;
46589;SDS011;32313;48.722;9.362;2022-09-27T06:36:12;4.37;;;3.97;;
46589;SDS011;32313;48.722;9.362;2022-09-27T06:38:39;4.77;;;4.03;;
46589;SDS011;32313;48.722;9.362;2022-09-27T06:41:16;4.70;;;3.60;;
46589;SDS011;32313;48.722;9.362;2022-09-27T06:43:50;4.43;;;3.77;;
46589;SDS011;32313;48.722;9.362;2022-09-27T06:46:34;3.30;;;3.10;;
46589;SDS011;32313;48.722;9.362;2022-09-27T06:49:24;4.13;;;3.10;;
46589;SDS011;32313;48.722;9.362;2022-09-27T06:51:50;3.50;;;3.20;;
46589;SDS011;32313;48.722;9.362;2022-09-27T06:54:19;3.70;;;3.47;;
46589;SDS011;32313;48.722;9.362;2022-09-27T06:56:46;3.40;;;3.20;;
46589;SDS011;32313;48.722;9.362;2022-09-27T06:59:12;3.43;;;2.93;;
46589;SDS011;32313;48.722;9.362;2022-09-27T07:02:16;3.23;;;3.03;;
46589;SDS011;32313;48.722;9.362;2022-09-27T07:04:57;3.60;;;3.30;;
46589;SDS011;32313;48.722;9.362;2022-09-27T07:07:41;3.37;;;2.90;;
46589;SDS011;32313;48.722;9.362;2022-09-27T07:10:09;3.67;;;3.37;;
46589;SDS011;32313;48.722;9.362;2022-09-27T07:12:37;3.30;;;3.10;;
46589;SDS011;32313;48.722;9.362;2022-09-27T07:15:04;3.00;;;2.70;;
46589;SDS011;32313;48.722;9.362;2022-09-27T07:17:30;3.13;;;2.93;;
46589;SDS011;32313;48.722;9.362;2022-09-27T07:19:57;3.50;;;3.20;;
46589;SDS011;32313;48.722;9.362;2022-09-27T07:22:23;2.70;;;2.50;;
46589;SDS011;32313;48.722;9.362;2022-09-27T07:24:56;3.33;;;3.10;;
46589;SDS011;32313;48.722;9.362;2022-09-27T07:27:24;2.60;;;2.50;;
46589;SDS011;32313;48.722;9.362;2022-09-27T07:29:50;3.37;;;3.07;;
46589;SDS011;32313;48.722;9.362;2022-09-27T07:32:16;3.03;;;2.73;;
46589;SDS011;32313;48.722;9.362;2022-09-27T07:34:42;2.83;;;2.67;;
46589;SDS011;32313;48.722;9.362;2022-09-27T07:37:09;2.60;;;2.50;;
46589;SDS011;32313;48.722;9.362;2022-09-27T07:39:37;2.63;;;2.40;;
46589;SDS011;32313;48.722;9.362;2022-09-27T07:42:03;2.57;;;2.47;;
46589;SDS011;32313;48.722;9.362;2022-09-27T07:44:30;2.40;;;2.30;;
46589;SDS011;32313;48.722;9.362;2022-09-27T07:47:26;2.50;;;2.40;;
46589;SDS011;32313;48.722;9.362;2022-09-27T07:50:04;2.57;;;2.47;;
46589;SDS011;32313;48.722;9.362;2022-09-27T07:52:56;2.33;;;2.23;;
46589;SDS011;32313;48.722;9.362;2022-09-27T07:55:34;2.20;;;2.10;;
46589;SDS011;32313;48.722;9.362;2022-09-27T07:58:16;2.63;;;2.47;;
46589;SDS011;32313;48.722;9.362;2022-09-27T08:00:43;2.30;;;2.20;;
46589;SDS011;32313;48.722;9.362;2022-09-27T08:03:10;2.90;;;2.53;;
46589;SDS011;32313;48.722;9.362;2022-09-27T08:05:40;2.50;;;2.30;;
46589;SDS011;32313;48.722;9.362;2022-09-27T08:08:07;2.33;;;2.23;;
46589;SDS011;32313;48.722;9.362;2022-09-27T08:10:33;2.27;;;2.17;;
46589;SDS011;32313;48.722;9.362;2022-09-27T08:13:01;2.40;;;2.30;;
46589;SDS011;32313;48.722;9.362;2022-09-27T08:15:28;2.37;;;2.27;;
46589;SDS011;32313;48.722;9.362;2022-09-27T08:17:57;2.03;;;1.93;;
46589;SDS011;32313;48.722;9.362;2022-09-27T08:20:42;2.43;;;2.23;;
46589;SDS011;32313;48.722;9.362;2022-09-27T08:23:26;2.27;;;2.07;;
46589;SDS011;32313;48.722;9.362;2022-09-27T08:26:15;2.23;;;2.03;;
46589;SDS011;32313;48.722;9.362;2022-09-27T08:28:50;1.90;;;1.80;;
46589;SDS011;32313;48.722;9.362;2022-09-27T08:31:18;2.20;;;2.10;;
46589;SDS011;32313;48.722;9.362;2022-09-27T08:33:49;2.60;;;2.50;;
46589;SDS011;32313;48.722;9.362;2022-09-27T08:36:15;2.43;;;2.27;;
46589;SDS011;32313;48.722;9.362;2022-09-27T08:38:42;2.60;;;2.50;;
46589;SDS011;32313;48.722;9.362;2022-09-27T08:41:13;1.90;;;1.80;;
46589;SDS011;32313;48.722;9.362;2022-09-27T08:43:52;2.07;;;1.97;;
46589;SDS011;32313;48.722;9.362;2022-09-27T08:49:10;2.00;;;1.90;;
46589;SDS011;32313;48.722;9.362;2022-09-27T08:51:41;1.90;;;1.80;;
46589;SDS011;32313;48.722;9.362;2022-09-27T08:56:44;2.40;;;2.00;;
46589;SDS011;32313;48.722;9.362;2022-09-27T08:59:15;2.43;;;2.20;;
46589;SDS011;32313;48.722;9.362;2022-09-27T09:01:47;2.10;;;2.00;;
46589;SDS011;32313;48.722;9.362;2022-09-27T09:04:27;2.40;;;2.20;;
46589;SDS011;32313;48.722;9.362;2022-09-27T09:15:20;2.27;;;2.17;;
46589;SDS011;32313;48.722;9.362;2022-09-27T09:26:46;1.90;;;1.80;;
46589;SDS011;32313;48.722;9.362;2022-09-27T09:35:05;1.53;;;1.43;;
46589;SDS011;32313;48.722;9.362;2022-09-27T09:37:44;1.50;;;1.40;;
46589;SDS011;32313;48.722;9.362;2022-09-27T09:40:16;1.63;;;1.40;;
46589;SDS011;32313;48.722;9.362;2022-09-27T09:42:56;1.40;;;1.30;;
46589;SDS011;32313;48.722;9.362;2022-09-27T09:45:27;1.10;;;1.10;;
46589;SDS011;32313;48.722;9.362;2022-09-27T09:48:18;2.33;;;1.10;;
46589;SDS011;32313;48.722;9.362;2022-09-27T09:50:58;0.90;;;0.90;;
46589;SDS011;32313;48.722;9.362;2022-09-27T09:56:01;1.00;;;1.00;;
46589;SDS011;32313;48.722;9.362;2022-09-27T09:58:40;0.93;;;0.93;;
46589;SDS011;32313;48.722;9.362;2022-09-27T10:01:20;0.90;;;0.90;;
46589;SDS011;32313;48.722;9.362;2022-09-27T10:04:06;1.00;;;0.90;;
46589;SDS011;32313;48.722;9.362;2022-09-27T10:06:36;1.30;;;1.20;;
46589;SDS011;32313;48.722;9.362;2022-09-27T10:09:02;1.10;;;1.00;;
46589;SDS011;32313;48.722;9.362;2022-09-27T10:11:39;1.17;;;1.00;;
46589;SDS011;32313;48.722;9.362;2022-09-27T10:14:24;1.00;;;1.00;;
46589;SDS011;32313;48.722;9.362;2022-09-27T10:17:00;1.20;;;1.10;;
46589;SDS011;32313;48.722;9.362;2022-09-27T10:19:30;1.30;;;1.20;;
46589;SDS011;32313;48.722;9.362;2022-09-27T10:22:02;1.63;;;1.30;;
46589;SDS011;32313;48.722;9.362;2022-09-27T10:27:40;1.47;;;1.30;;
46589;SDS011;32313;48.722;9.362;2022-09-27T10:32:59;1.87;;;1.20;;
46589;SDS011;32313;48.722;9.362;2022-09-27T10:35:41;2.30;;;1.37;;
46589;SDS011;32313;48.722;9.362;2022-09-27T10:40:57;1.40;;;1.30;;
46589;SDS011;32313;48.722;9.362;2022-09-27T10:43:41;2.33;;;1.50;;
46589;SDS011;32313;48.722;9.362;2022-09-27T10:46:29;1.83;;;1.33;;
46589;SDS011;32313;48.722;9.362;2022-09-27T10:52:01;2.20;;;1.73;;
46589;SDS011;32313;48.722;9.362;2022-09-27T10:54:53;2.23;;;1.60;;
46589;SDS011;32313;48.722;9.362;2022-09-27T10:57:22;2.47;;;1.80;;
46589;SDS011;32313;48.722;9.362;2022-09-27T10:59:54;1.70;;;1.60;;
46589;SDS011;32313;48.722;9.362;2022-09-27T11:02:27;3.73;;;2.00;;
46589;SDS011;32313;48.722;9.362;2022-09-27T11:05:14;1.80;;;1.70;;
46589;SDS011;32313;48.722;9.362;2022-09-27T11:07:59;3.20;;;1.73;;
46589;SDS011;32313;48.722;9.362;2022-09-27T11:11:38;2.17;;;1.70;;
46589;SDS011;32313;48.722;9.362;2022-09-27T11:13:58;1.87;;;1.57;;
46589;SDS011;32313;48.722;9.362;2022-09-27T11:30:18;2.27;;;1.90;;
46589;SDS011;32313;48.722;9.362;2022-09-27T11:33:06;3.63;;;2.00;;
46589;SDS011;32313;48.722;9.362;2022-09-27T11:38:36;1.70;;;1.60;;
46589;SDS011;32313;48.722;9.362;2022-09-27T11:57:22;3.13;;;2.03;;
46589;SDS011;32313;48.722;9.362;2022-09-27T12:00:07;2.63;;;2.20;;
46589;SDS011;32313;48.722;9.362;2022-09-27T12:16:26;2.67;;;2.17;;
46589;SDS011;32313;48.722;9.362;2022-09-27T12:18:54;2.30;;;2.13;;
46589;SDS011;32313;48.722;9.362;2022-09-27T12:21:47;2.60;;;2.37;;
46589;SDS011;32313;48.722;9.362;2022-09-27T12:24:18;2.33;;;2.10;;
46589;SDS011;32313;48.722;9.362;2022-09-27T12:27:00;2.33;;;2.13;;
46589;SDS011;32313;48.722;9.362;2022-09-27T12:29:34;2.67;;;2.47;;
46589;SDS011;32313;48.722;9.362;2022-09-27T12:32:15;2.83;;;2.60;;
46589;SDS011;32313;48.722;9.362;2022-09-27T12:34:59;2.60;;;2.33;;
46589;SDS011;32313;48.722;9.362;2022-09-27T12:37:37;2.70;;;2.50;;
46589;SDS011;32313;48.722;9.362;2022-09-27T12:40:15;2.50;;;2.30;;
46589;SDS011;32313;48.722;9.362;2022-09-27T12:42:52;2.80;;;2.60;;
46589;SDS011;32313;48.722;9.362;2022-09-27T12:51:04;2.20;;;2.10;;
46589;SDS011;32313;48.722;9.362;2022-09-27T12:56:43;2.87;;;2.67;;
46589;SDS011;32313;48.722;9.362;2022-09-27T13:07:41;3.00;;;2.30;;
46589;SDS011;32313;48.722;9.362;2022-09-27T13:10:30;2.30;;;2.10;;
46589;SDS011;32313;48.722;9.362;2022-09-27T13:13:32;2.67;;;2.47;;
46589;SDS011;32313;48.722;9.362;2022-09-27T13:16:00;2.60;;;2.50;;
46589;SDS011;32313;48.722;9.362;2022-09-27T13:21:08;2.70;;;2.23;;
46589;SDS011;32313;48.722;9.362;2022-09-27T13:29:02;2.40;;;2.30;;
46589;SDS011;32313;48.722;9.362;2022-09-27T13:45:49;2.10;;;2.00;;
46589;SDS011;32313;48.722;9.362;2022-09-27T14:00:02;2.30;;;2.10;;
46589;SDS011;32313;48.722;9.362;2022-09-27T14:03:04;2.50;;;2.10;;
46589;SDS011;32313;48.722;9.362;2022-09-27T14:10:58;2.30;;;2.10;;
46589;SDS011;32313;48.722;9.362;2022-09-27T14:13:26;2.17;;;2.07;;
46589;SDS011;32313;48.722;9.362;2022-09-27T14:16:02;2.03;;;1.93;;
46589;SDS011;32313;48.722;9.362;2022-09-27T14:18:31;2.70;;;2.00;;
46589;SDS011;32313;48.722;9.362;2022-09-27T14:24:19;2.10;;;1.90;;
46589;SDS011;32313;48.722;9.362;2022-09-27T14:26:45;2.40;;;2.20;;
46589;SDS011;32313;48.722;9.362;2022-09-27T14:29:15;2.23;;;2.13;;
46589;SDS011;32313;48.722;9.362;2022-09-27T14:31:42;3.03;;;2.27;;
46589;SDS011;32313;48.722;9.362;2022-09-27T14:34:18;2.10;;;1.90;;
46589;SDS011;32313;48.722;9.362;2022-09-27T14:36:46;3.63;;;2.20;;
46589;SDS011;32313;48.722;9.362;2022-09-27T14:39:40;2.20;;;2.10;;
46589;SDS011;32313;48.722;9.362;2022-09-27T14:42:25;2.20;;;2.00;;
46589;SDS011;32313;48.722;9.362;2022-09-27T14:44:54;1.97;;;1.87;;
46589;SDS011;32313;48.722;9.362;2022-09-27T14:47:25;1.97;;;1.87;;
46589;SDS011;32313;48.722;9.362;2022-09-27T14:49:56;2.17;;;2.07;;
46589;SDS011;32313;48.722;9.362;2022-09-27T14:52:28;2.10;;;2.00;;
46589;SDS011;32313;48.722;9.362;2022-09-27T14:55:07;2.20;;;2.10;;
46589;SDS011;32313;48.722;9.362;2022-09-27T14:57:45;2.30;;;2.20;;
46589;SDS011;32313;48.722;9.362;2022-09-27T15:02:45;2.30;;;2.03;;
46589;SDS011;32313;48.722;9.362;2022-09-27T15:05:15;2.60;;;2.40;;
46589;SDS011;32313;48.722;9.362;2022-09-27T15:07:44;2.30;;;2.20;;
46589;SDS011;32313;48.722;9.362;2022-09-27T15:10:14;2.30;;;2.20;;
46589;SDS011;32313;48.722;9.362;2022-09-27T15:12:46;2.53;;;2.30;;
46589;SDS011;32313;48.722;9.362;2022-09-27T15:15:15;2.63;;;2.37;;
46589;SDS011;32313;48.722;9.362;2022-09-27T15:17:45;2.10;;;1.90;;
46589;SDS011;32313;48.722;9.362;2022-09-27T15:22:48;1.83;;;1.73;;
46589;SDS011;32313;48.722;9.362;2022-09-27T15:25:19;2.03;;;1.77;;
46589;SDS011;32313;48.722;9.362;2022-09-27T15:28:00;1.70;;;1.60;;
46589;SDS011;32313;48.722;9.362;2022-09-27T15:33:01;1.53;;;1.40;;
46589;SDS011;32313;48.722;9.362;2022-09-27T15:35:29;1.90;;;1.50;;
46589;SDS011;32313;48.722;9.362;2022-09-27T15:38:12;1.87;;;1.50;;
46589;SDS011;32313;48.722;9.362;2022-09-27T15:43:26;2.47;;;1.40;;
46589;SDS011;32313;48.722;9.362;2022-09-27T15:51:51;1.90;;;1.80;;
46589;SDS011;32313;48.722;9.362;2022-09-27T15:54:22;1.90;;;1.80;;
46589;SDS011;32313;48.722;9.362;2022-09-27T15:56:50;2.03;;;1.83;;
46589;SDS011;32313;48.722;9.362;2022-09-27T15:59:20;2.60;;;2.13;;
46589;SDS011;32313;48.722;9.362;2022-09-27T16:01:57;2.10;;;2.00;;
46589;SDS011;32313;48.722;9.362;2022-09-27T16:04:25;2.20;;;2.10;;
46589;SDS011;32313;48.722;9.362;2022-09-27T16:06:51;2.40;;;2.20;;
46589;SDS011;32313;48.722;9.362;2022-09-27T16:09:18;2.33;;;2.13;;
46589;SDS011;32313;48.722;9.362;2022-09-27T16:11:48;2.27;;;2.07;;
46589;SDS011;32313;48.722;9.362;2022-09-27T16:14:15;2.27;;;2.17;;
46589;SDS011;32313;48.722;9.362;2022-09-27T16:16:43;2.50;;;2.13;;
46589;SDS011;32313;48.722;9.362;2022-09-27T16:19:14;2.37;;;2.27;;
46589;SDS011;32313;48.722;9.362;2022-09-27T16:21:39;2.30;;;2.20;;
46589;SDS011;32313;48.722;9.362;2022-09-27T16:24:07;3.10;;;2.90;;
46589;SDS011;32313;48.722;9.362;2022-09-27T16:26:34;2.87;;;2.33;;
46589;SDS011;32313;48.722;9.362;2022-09-27T16:29:00;2.87;;;2.70;;
46589;SDS011;32313;48.722;9.362;2022-09-27T16:31:26;2.53;;;2.33;;
46589;SDS011;32313;48.722;9.362;2022-09-27T16:33:52;3.37;;;2.90;;
46589;SDS011;32313;48.722;9.362;2022-09-27T16:36:17;3.03;;;2.60;;
46589;SDS011;32313;48.722;9.362;2022-09-27T16:38:50;3.30;;;2.50;;
46589;SDS011;32313;48.722;9.362;2022-09-27T16:41:18;3.67;;;2.50;;
46589;SDS011;32313;48.722;9.362;2022-09-27T16:43:44;3.30;;;2.30;;
46589;SDS011;32313;48.722;9.362;2022-09-27T16:46:11;2.73;;;2.37;;
46589;SDS011;32313;48.722;9.362;2022-09-27T16:48:40;3.03;;;2.50;;
46589;SDS011;32313;48.722;9.362;2022-09-27T16:51:08;3.10;;;2.90;;
46589;SDS011;32313;48.722;9.362;2022-09-27T16:53:55;2.87;;;2.67;;
46589;SDS011;32313;48.722;9.362;2022-09-27T16:56:21;3.10;;;2.80;;
46589;SDS011;32313;48.722;9.362;2022-09-27T16:58:46;2.60;;;2.40;;
46589;SDS011;32313;48.722;9.362;2022-09-27T17:01:12;2.50;;;2.40;;
46589;SDS011;32313;48.722;9.362;2022-09-27T17:03:41;3.00;;;2.80;;
46589;SDS011;32313;48.722;9.362;2022-09-27T17:06:09;3.30;;;2.93;;
46589;SDS011;32313;48.722;9.362;2022-09-27T17:08:34;3.00;;;2.47;;
46589;SDS011;32313;48.722;9.362;2022-09-27T17:11:00;2.83;;;2.63;;
46589;SDS011;32313;48.722;9.362;2022-09-27T17:13:26;3.00;;;2.80;;
46589;SDS011;32313;48.722;9.362;2022-09-27T17:15:51;3.80;;;2.47;;
46589;SDS011;32313;48.722;9.362;2022-09-27T17:18:18;2.70;;;2.50;;
46589;SDS011;32313;48.722;9.362;2022-09-27T17:20:44;2.70;;;2.50;;
46589;SDS011;32313;48.722;9.362;2022-09-27T17:23:09;3.30;;;2.47;;
46589;SDS011;32313;48.722;9.362;2022-09-27T17:25:35;2.77;;;2.57;;
46589;SDS011;32313;48.722;9.362;2022-09-27T17:28:02;2.73;;;2.53;;
46589;SDS011;32313;48.722;9.362;2022-09-27T17:30:28;3.03;;;2.83;;
46589;SDS011;32313;48.722;9.362;2022-09-27T17:32:54;2.63;;;2.23;;
46589;SDS011;32313;48.722;9.362;2022-09-27T17:35:19;2.40;;;2.20;;
46589;SDS011;32313;48.722;9.362;2022-09-27T17:37:45;2.93;;;2.73;;
46589;SDS011;32313;48.722;9.362;2022-09-27T17:40:11;2.60;;;2.40;;
46589;SDS011;32313;48.722;9.362;2022-09-27T17:42:38;3.87;;;2.20;;
46589;SDS011;32313;48.722;9.362;2022-09-27T17:45:04;2.50;;;2.30;;
46589;SDS011;32313;48.722;9.362;2022-09-27T17:47:30;2.83;;;2.53;;
46589;SDS011;32313;48.722;9.362;2022-09-27T17:50:14;3.00;;;2.70;;
46589;SDS011;32313;48.722;9.362;2022-09-27T17:52:49;2.57;;;2.37;;
46589;SDS011;32313;48.722;9.362;2022-09-27T17:55:15;3.00;;;2.53;;
46589;SDS011;32313;48.722;9.362;2022-09-27T17:57:41;2.73;;;2.50;;
46589;SDS011;32313;48.722;9.362;2022-09-27T18:00:07;2.37;;;2.27;;
46589;SDS011;32313;48.722;9.362;2022-09-27T18:02:37;2.77;;;2.57;;
46589;SDS011;32313;48.722;9.362;2022-09-27T18:05:03;2.40;;;2.30;;
46589;SDS011;32313;48.722;9.362;2022-09-27T18:07:29;2.90;;;2.73;;
46589;SDS011;32313;48.722;9.362;2022-09-27T18:09:55;2.70;;;2.50;;
46589;SDS011;32313;48.722;9.362;2022-09-27T18:12:21;2.80;;;2.50;;
46589;SDS011;32313;48.722;9.362;2022-09-27T18:14:47;3.07;;;2.87;;
46589;SDS011;32313;48.722;9.362;2022-09-27T18:17:13;3.13;;;2.60;;
46589;SDS011;32313;48.722;9.362;2022-09-27T18:19:40;2.93;;;2.80;;
46589;SDS011;32313;48.722;9.362;2022-09-27T18:22:06;3.47;;;2.77;;
46589;SDS011;32313;48.722;9.362;2022-09-27T18:24:31;2.57;;;2.43;;
46589;SDS011;32313;48.722;9.362;2022-09-27T18:26:57;3.33;;;3.13;;
46589;SDS011;32313;48.722;9.362;2022-09-27T18:29:24;3.33;;;3.07;;
46589;SDS011;32313;48.722;9.362;2022-09-27T18:31:49;4.10;;;3.17;;
46589;SDS011;32313;48.722;9.362;2022-09-27T18:34:18;3.00;;;2.80;;
46589;SDS011;32313;48.722;9.362;2022-09-27T18:36:44;3.20;;;3.00;;
46589;SDS011;32313;48.722;9.362;2022-09-27T18:39:11;3.67;;;3.37;;
46589;SDS011;32313;48.722;9.362;2022-09-27T18:41:39;3.40;;;3.20;;
46589;SDS011;32313;48.722;9.362;2022-09-27T18:44:05;3.80;;;3.53;;
46589;SDS011;32313;48.722;9.362;2022-09-27T18:46:32;3.30;;;3.00;;
46589;SDS011;32313;48.722;9.362;2022-09-27T18:48:59;2.83;;;2.70;;
46589;SDS011;32313;48.722;9.362;2022-09-27T18:51:26;3.63;;;3.37;;
46589;SDS011;32313;48.722;9.362;2022-09-27T18:53:56;3.67;;;3.40;;
46589;SDS011;32313;48.722;9.362;2022-09-27T18:56:26;3.40;;;3.10;;